»·PEaware :: N7697G L88-KSBP

N7697G :: L88-KSBP

FLIGHT INFORMATION

Flight Status: Arrived
Operator: Privately registered:
United States
More flights under this callsign
Pilot: Carlos P. (20373)
Aircraft: CESSNA 172 SKYHAWK
(C172)
More flights by this aircraft type
Origin: L88 New Cuyama
United States
Destination: KSBP San Luis Co Regl
United States
More flights between these airports :: More routes between these airports
Route: +DIRECT
File this flight plan on PilotEdge
Remarks:
Altitude:
(Current/Filed)
7,500ft
Speed:
(Current/Filed)
110kts
Departed: 08-Sep-18 03:35 PM
Arrived: 08-Sep-18 04:08 PM
Distance/Time
Traveled:
50nm/0:33
Distance/Time
To Go:
Arrived

Flight Plot

Page will automatically refresh every two minutes.


Map Options




Map Legend


Flown Route
Filed Route
Departure Airport
Arrival Airport
Navaid (VOR, NDB)
Fix

Horizontal Profiles

Position Reports

Time Latitude Longitude Heading Altitude Ground
Speed
08-Sep-18 15:29 34.942855 -119.690286 204 2207ft 0kts
08-Sep-18 15:30 34.942855 -119.690286 204 2207ft 0kts
08-Sep-18 15:31 34.942855 -119.690286 204 2207ft 0kts
08-Sep-18 15:32 34.942855 -119.690286 204 2207ft 0kts
08-Sep-18 15:33 34.942854 -119.690903 288 2207ft 4kts
08-Sep-18 15:34 34.940411 -119.686734 117 2207ft 31kts
08-Sep-18 15:35 34.937698 -119.680066 292 2207ft 0kts
08-Sep-18 15:36 34.938086 -119.681032 295 2207ft 38kts
08-Sep-18 15:37 34.946897 -119.700744 290 2867ft 71kts
08-Sep-18 15:38 34.955796 -119.722489 288 3679ft 72kts
08-Sep-18 15:39 34.963830 -119.745176 288 4506ft 73kts
08-Sep-18 15:40 34.970848 -119.768577 290 5286ft 74kts
08-Sep-18 15:41 34.978159 -119.792282 284 6027ft 75kts
08-Sep-18 15:42 34.984501 -119.816787 294 6723ft 77kts
08-Sep-18 15:43 34.993088 -119.840553 293 7382ft 78kts
08-Sep-18 15:44 35.001468 -119.869567 288 7636ft 107kts
08-Sep-18 15:45 35.012951 -119.902623 291 7486ft 105kts
08-Sep-18 15:46 35.023295 -119.934642 292 7387ft 100kts
08-Sep-18 15:46 35.031410 -119.960929 286 7333ft 96kts
08-Sep-18 15:47 35.040092 -119.991636 287 7448ft 95kts
08-Sep-18 15:49 35.050530 -120.027016 288 7574ft 95kts
08-Sep-18 15:50 35.059514 -120.057726 289 7639ft 98kts
08-Sep-18 15:50 35.067760 -120.084155 290 7660ft 100kts
08-Sep-18 15:51 35.076970 -120.116374 290 7674ft 101kts
08-Sep-18 15:52 35.087368 -120.148251 292 7670ft 103kts
08-Sep-18 15:53 35.097817 -120.180863 290 7660ft 103kts
08-Sep-18 15:55 35.108100 -120.218452 291 7659ft 103kts
08-Sep-18 15:55 35.115225 -120.246277 285 7664ft 103kts
08-Sep-18 15:56 35.125008 -120.279228 291 7672ft 102kts
08-Sep-18 15:57 35.134851 -120.311819 291 7677ft 102kts
08-Sep-18 15:59 35.143996 -120.343112 286 7682ft 102kts
08-Sep-18 16:00 35.154558 -120.375472 294 7222ft 104kts
08-Sep-18 16:01 35.165281 -120.408168 290 6795ft 103kts
08-Sep-18 16:02 35.174972 -120.440619 293 6208ft 102kts
08-Sep-18 16:03 35.185160 -120.472548 290 5361ft 104kts
08-Sep-18 16:04 35.192820 -120.506508 284 4195ft 106kts
08-Sep-18 16:05 35.194372 -120.541783 275 2997ft 104kts
08-Sep-18 16:06 35.199976 -120.574178 303 1865ft 98kts
08-Sep-18 16:07 35.213546 -120.599340 306 1228ft 85kts
08-Sep-18 16:08 35.225656 -120.620713 305 665ft 47kts
08-Sep-18 16:09 35.232149 -120.631951 305 285ft 44kts
08-Sep-18 16:10 35.236802 -120.639885 330 215ft 14kts
08-Sep-18 16:11 35.237554 -120.639912 0 215ft 0kts
08-Sep-18 16:12 35.237554 -120.639912 0 215ft 0kts
08-Sep-18 16:13 35.238032 -120.640521 306 215ft 8kts
08-Sep-18 16:14 35.238808 -120.639337 174 215ft 0kts
08-Sep-18 16:15 35.238801 -120.639337 180 215ft 0kts
08-Sep-18 16:16 35.238801 -120.639337 180 215ft 0kts
08-Sep-18 16:17 35.238801 -120.639337 180 215ft 0kts
08-Sep-18 16:18 35.238801 -120.639337 180 215ft 0kts
08-Sep-18 16:19 35.238801 -120.639337 180 215ft 0kts
08-Sep-18 16:20 35.238801 -120.639337 180 215ft 0kts
08-Sep-18 16:21 35.238801 -120.639337 180 215ft 0kts
08-Sep-18 16:22 35.238801 -120.639337 180 215ft 0kts
08-Sep-18 16:23 35.238801 -120.639337 180 215ft 0kts
08-Sep-18 16:24 35.238801 -120.639337 180 215ft 0kts

Navigation Log

Ident Type
1. L88 Airport
2. KSBP Airport